Time;durP1;ratioP1;P1;durP2;ratioP2;P2;SDS_P1;SDS_P2;PMS_P1;PMS_P2;Temp;Humidity;BMP_temperature;BMP_pressure;BME280_temperature;BME280_humidity;BME280_pressure;Samples;Min_cycle;Max_cycle;Signal;HPM_P1;HPM_P2
2022/08/04 00:00:09;;;;;;;8.10;7.30;;;25.30;73.00;;;;;;5054373;28;20949;-47
2022/08/04 00:02:45;;;;;;;9.23;7.90;;;25.30;73.00;;;;;;5054332;28;20449;-47
2022/08/04 00:05:23;;;;;;;14.40;8.10;;;25.30;73.30;;;;;;5054513;28;20431;-47
2022/08/04 00:08:01;;;;;;;10.10;7.57;;;25.30;73.40;;;;;;5054565;28;20876;-47
2022/08/04 00:10:28;;;;;;;11.70;9.23;;;25.30;73.50;;;;;;5052888;28;20449;-47
2022/08/04 00:12:58;;;;;;;10.90;7.60;;;25.30;73.70;;;;;;5054235;28;20470;-46
2022/08/04 00:15:27;;;;;;;8.93;7.70;;;25.20;73.80;;;;;;5054420;28;20513;-47
2022/08/04 00:17:59;;;;;;;8.00;7.10;;;25.20;73.90;;;;;;5054250;28;20443;-47
2022/08/04 00:20:30;;;;;;;8.97;7.50;;;25.20;73.90;;;;;;5054032;28;20437;-47
2022/08/04 00:22:59;;;;;;;8.50;5.97;;;25.10;74.00;;;;;;5054313;28;20537;-47
2022/08/04 00:25:26;;;;;;;9.60;6.90;;;25.20;74.00;;;;;;5054155;28;20435;-46
2022/08/04 00:27:52;;;;;;;8.60;5.93;;;25.20;74.10;;;;;;5054192;28;20447;-47
2022/08/04 00:30:19;;;;;;;10.47;6.83;;;25.10;74.00;;;;;;5053676;28;20438;-47
2022/08/04 00:32:47;;;;;;;8.90;6.67;;;25.10;74.00;;;;;;5052396;28;20520;-46
2022/08/04 00:35:14;;;;;;;9.33;7.23;;;25.10;74.00;;;;;;5054926;28;20930;-46
2022/08/04 00:37:44;;;;;;;8.83;7.20;;;25.10;74.30;;;;;;5055286;28;20667;-46
2022/08/04 00:40:21;;;;;;;8.57;6.90;;;24.90;74.30;;;;;;5054271;28;20430;-46
2022/08/04 00:42:58;;;;;;;8.90;7.17;;;25.10;74.70;;;;;;5054607;28;20438;-46
2022/08/04 00:45:45;;;;;;;8.87;7.10;;;25.00;74.70;;;;;;5054703;28;20441;-46
2022/08/04 00:48:25;;;;;;;8.77;7.27;;;25.00;74.90;;;;;;5054325;28;20973;-46
2022/08/04 00:51:05;;;;;;;13.43;6.83;;;24.90;74.90;;;;;;5055164;28;20521;-47
2022/08/04 00:53:44;;;;;;;7.43;6.70;;;24.90;74.80;;;;;;5054532;28;20517;-46
2022/08/04 00:56:29;;;;;;;9.17;7.80;;;24.90;74.90;;;;;;5053742;28;20435;-46
2022/08/04 00:59:04;;;;;;;7.47;5.73;;;24.90;74.80;;;;;;5053324;28;20462;-47
2022/08/04 01:01:47;;;;;;;8.63;7.20;;;24.90;74.70;;;;;;5053789;28;20436;-47
2022/08/04 01:04:20;;;;;;;7.43;6.10;;;24.90;74.50;;;;;;5053680;28;20981;-47
2022/08/04 01:07:00;;;;;;;7.30;6.10;;;24.80;74.50;;;;;;5053425;28;20437;-47
2022/08/04 01:09:40;;;;;;;10.43;6.80;;;24.80;74.50;;;;;;5053009;28;20474;-47
2022/08/04 01:12:27;;;;;;;8.13;6.27;;;24.80;74.80;;;;;;5053206;28;20427;-47
2022/08/04 01:15:05;;;;;;;7.50;5.33;;;24.70;75.00;;;;;;5053231;28;20438;-47
2022/08/04 01:17:49;;;;;;;7.63;6.40;;;24.70;75.10;;;;;;5052937;28;20434;-47
2022/08/04 01:20:20;;;;;;;7.87;6.50;;;24.70;75.20;;;;;;5052739;28;20427;-47
2022/08/04 01:23:27;;;;;;;11.53;5.93;;;24.70;75.50;;;;;;5052992;28;20448;-47
2022/08/04 01:26:33;;;;;;;6.67;5.70;;;24.60;75.40;;;;;;5068373;28;20954;-47
2022/08/04 01:29:07;;;;;;;10.70;5.67;;;24.60;76.20;;;;;;5052637;28;20807;-47
2022/08/04 01:31:46;;;;;;;7.83;5.70;;;24.60;75.50;;;;;;5052762;28;20439;-47
2022/08/04 01:34:15;;;;;;;9.63;7.17;;;24.50;75.90;;;;;;5052748;28;20474;-47
2022/08/04 01:36:46;;;;;;;7.40;5.40;;;24.50;76.30;;;;;;5052792;28;20438;-46
2022/08/04 01:42:01;;;;;;;6.60;5.70;;;24.50;76.40;;;;;;5052815;28;20465;-46
2022/08/04 01:44:31;;;;;;;11.30;6.70;;;24.50;76.40;;;;;;5052563;28;20437;-46
2022/08/04 01:47:00;;;;;;;9.80;6.00;;;24.30;76.30;;;;;;5052725;28;20927;-47
2022/08/04 01:49:29;;;;;;;8.90;6.83;;;24.40;76.40;;;;;;5052084;28;20958;-46
2022/08/04 01:51:57;;;;;;;7.83;5.70;;;24.40;76.60;;;;;;5051948;28;20956;-47
2022/08/04 01:54:25;;;;;;;12.27;6.93;;;24.40;76.80;;;;;;5052539;28;20486;-47
2022/08/04 01:56:53;;;;;;;7.63;6.30;;;24.40;76.90;;;;;;5052417;28;20806;-47
2022/08/04 01:59:21;;;;;;;12.90;6.60;;;24.30;77.10;;;;;;5051851;28;20469;-46
2022/08/04 02:01:49;;;;;;;7.20;6.00;;;24.30;77.20;;;;;;5052929;28;20437;-46
2022/08/04 02:04:19;;;;;;;7.10;6.40;;;24.30;77.40;;;;;;5052575;28;20462;-46
2022/08/04 02:07:00;;;;;;;7.80;6.80;;;24.40;77.60;;;;;;5052173;28;20430;-46
2022/08/04 02:09:37;;;;;;;13.37;6.60;;;24.20;77.50;;;;;;5051632;28;20470;-46
2022/08/04 02:12:13;;;;;;;9.73;6.30;;;24.20;77.40;;;;;;5052103;28;20449;-47
2022/08/04 02:14:46;;;;;;;6.47;5.70;;;24.10;77.30;;;;;;5052390;28;20492;-46
2022/08/04 02:17:19;;;;;;;6.73;6.00;;;24.10;77.40;;;;;;5050903;28;20454;-45
2022/08/04 02:20:03;;;;;;;9.67;6.53;;;24.10;77.40;;;;;;5051587;28;20756;-45
2022/08/04 02:22:32;;;;;;;9.33;5.40;;;24.00;77.50;;;;;;5050761;28;20503;-46
2022/08/04 02:25:06;;;;;;;8.13;5.43;;;24.00;77.50;;;;;;5052062;28;20446;-46
2022/08/04 02:27:55;;;;;;;6.83;5.40;;;24.00;77.50;;;;;;5052432;28;20453;-47
2022/08/04 02:30:22;;;;;;;9.20;5.30;;;23.90;77.40;;;;;;5051689;28;20431;-46
2022/08/04 02:32:52;;;;;;;6.33;5.30;;;23.90;77.30;;;;;;5051921;28;20445;-46
2022/08/04 02:35:25;;;;;;;6.80;5.13;;;23.80;77.30;;;;;;5052183;28;20436;-46
2022/08/04 02:37:59;;;;;;;9.00;6.03;;;23.90;77.50;;;;;;5051935;28;20442;-45
2022/08/04 02:40:29;;;;;;;7.40;5.40;;;23.90;77.60;;;;;;5051498;28;20455;-45
2022/08/04 02:42:57;;;;;;;9.90;5.30;;;23.90;77.60;;;;;;5051743;28;20427;-46
2022/08/04 02:45:25;;;;;;;6.80;5.40;;;24.10;78.10;;;;;;5051634;28;20447;-47
2022/08/04 02:47:55;;;;;;;7.97;5.67;;;23.90;77.90;;;;;;5051654;28;20443;-46
2022/08/04 02:50:22;;;;;;;8.23;6.63;;;23.80;78.00;;;;;;5051375;28;20932;-46
2022/08/04 02:52:51;;;;;;;8.23;5.50;;;23.80;78.00;;;;;;5051667;28;20938;-46
2022/08/04 02:55:19;;;;;;;7.10;6.00;;;23.80;78.20;;;;;;5051661;28;20441;-46
2022/08/04 02:57:49;;;;;;;10.63;6.53;;;23.80;78.30;;;;;;5051578;28;20449;-46
2022/08/04 03:00:18;;;;;;;7.60;5.67;;;23.80;78.40;;;;;;5049994;28;20969;-46
2022/08/04 03:03:02;;;;;;;11.37;5.50;;;23.70;78.50;;;;;;5052362;28;20430;-46
2022/08/04 03:05:39;;;;;;;10.97;5.97;;;23.70;78.60;;;;;;5055932;28;20851;-47
2022/08/04 03:08:47;;;;;;;6.57;5.77;;;23.70;78.90;;;;;;5055487;28;20979;-46
2022/08/04 03:11:45;;;;;;;9.73;6.27;;;23.60;79.00;;;;;;5055542;28;20436;-46
2022/08/04 03:14:55;;;;;;;7.73;5.83;;;23.60;79.30;;;;;;5055554;28;20470;-47
2022/08/04 03:17:41;;;;;;;6.87;5.47;;;23.50;79.50;;;;;;5035776;28;20563;-46
2022/08/04 03:20:43;;;;;;;8.60;5.43;;;23.50;79.60;;;;;;5054945;28;20831;-46
2022/08/04 03:23:35;;;;;;;9.17;6.83;;;23.40;79.90;;;;;;5055226;28;20796;-47
2022/08/04 03:26:29;;;;;;;11.67;6.70;;;23.40;79.80;;;;;;5055399;28;20445;-47
2022/08/04 03:29:18;;;;;;;11.13;6.80;;;23.50;80.20;;;;;;5054555;28;20801;-46
2022/08/04 03:32:13;;;;;;;8.80;6.70;;;23.40;80.20;;;;;;5055192;28;20438;-46
2022/08/04 03:34:56;;;;;;;7.10;5.57;;;23.30;80.10;;;;;;5055147;28;21001;-46
2022/08/04 03:37:38;;;;;;;10.67;6.23;;;23.30;80.10;;;;;;5055077;28;20443;-46
2022/08/04 03:40:35;;;;;;;10.63;6.60;;;23.40;80.20;;;;;;5054573;28;20465;-46
2022/08/04 03:43:33;;;;;;;7.10;6.37;;;23.40;80.10;;;;;;5054940;28;20440;-46
2022/08/04 03:46:37;;;;;;;10.70;6.23;;;23.40;80.20;;;;;;5055295;28;20437;-46
2022/08/04 03:49:27;;;;;;;19.40;8.10;;;23.30;80.00;;;;;;5042032;28;20582;-46
2022/08/04 03:55:30;;;;;;;11.37;6.50;;;23.30;79.90;;;;;;5054693;28;20484;-46
2022/08/04 03:58:31;;;;;;;9.70;6.40;;;22.90;79.40;;;;;;5055215;28;20458;-46
2022/08/04 04:01:06;;;;;;;10.73;6.10;;;23.30;79.80;;;;;;5054901;28;20432;-46
2022/08/04 04:04:07;;;;;;;11.87;6.40;;;23.30;79.80;;;;;;5054459;28;20869;-46
2022/08/04 04:07:16;;;;;;;10.47;6.67;;;23.40;79.90;;;;;;5016011;28;20465;-46
2022/08/04 04:10:03;;;;;;;11.17;6.37;;;23.40;79.70;;;;;;5053243;28;20939;-46
2022/08/04 04:13:02;;;;;;;9.50;6.50;;;23.40;79.70;;;;;;5054409;28;20445;-46
2022/08/04 04:15:43;;;;;;;11.37;7.80;;;23.40;79.50;;;;;;5050557;28;20514;-46
2022/08/04 04:18:38;;;;;;;9.37;7.33;;;23.40;79.20;;;;;;5054221;28;20458;-46
2022/08/04 04:21:26;;;;;;;13.47;6.87;;;23.50;78.90;;;;;;5054215;28;20445;-46
2022/08/04 04:24:18;;;;;;;13.87;6.47;;;23.60;78.50;;;;;;5054192;28;20520;-46
2022/08/04 04:26:56;;;;;;;13.20;6.60;;;23.60;78.40;;;;;;5069166;28;20479;-47
2022/08/04 04:29:57;;;;;;;9.90;7.30;;;23.60;77.70;;;;;;5054029;28;20949;-47
2022/08/04 04:32:34;;;;;;;12.23;7.60;;;23.80;77.60;;;;;;5049293;28;20456;-46
2022/08/04 04:35:19;;;;;;;11.93;7.97;;;24.00;77.40;;;;;;5053798;28;20838;-47
2022/08/04 04:38:03;;;;;;;7.97;6.40;;;24.10;76.80;;;;;;5053813;28;20430;-46
2022/08/04 04:40:41;;;;;;;10.23;6.90;;;24.30;76.10;;;;;;5053474;28;20450;-46
2022/08/04 04:43:26;;;;;;;7.70;6.70;;;24.60;75.80;;;;;;5053676;28;20919;-46
2022/08/04 04:46:03;;;;;;;8.30;7.57;;;24.60;74.90;;;;;;5054073;28;20756;-46
2022/08/04 04:48:37;;;;;;;7.40;6.70;;;24.70;74.40;;;;;;5053504;28;20982;-46
2022/08/04 04:51:10;;;;;;;12.50;6.33;;;25.10;74.30;;;;;;5054104;28;20806;-46
2022/08/04 04:53:46;;;;;;;11.10;6.30;;;25.00;73.70;;;;;;5053816;28;20481;-46
2022/08/04 04:56:19;;;;;;;9.10;6.70;;;25.10;73.30;;;;;;5053544;28;20435;-47
2022/08/04 04:58:46;;;;;;;8.50;7.60;;;25.20;72.90;;;;;;5053239;28;20495;-47
2022/08/04 05:01:46;;;;;;;7.43;6.73;;;25.20;72.80;;;;;;5053462;28;20443;-46
2022/08/04 05:04:46;;;;;;;6.80;6.13;;;25.40;72.40;;;;;;5053493;28;20431;-47
2022/08/04 05:07:38;;;;;;;7.30;6.60;;;25.50;72.50;;;;;;5049847;28;20457;-47
2022/08/04 05:10:19;;;;;;;8.40;7.60;;;25.50;72.10;;;;;;5052532;28;20475;-47
2022/08/04 05:12:57;;;;;;;10.97;7.33;;;25.60;72.10;;;;;;5053170;28;20812;-47
2022/08/04 05:15:28;;;;;;;13.97;7.30;;;25.70;71.90;;;;;;5052965;28;20842;-46
2022/08/04 05:17:58;;;;;;;8.33;7.40;;;25.90;72.00;;;;;;5053094;28;20443;-46
2022/08/04 05:20:29;;;;;;;8.40;6.60;;;25.80;71.70;;;;;;5052743;28;20431;-46
2022/08/04 05:23:00;;;;;;;6.57;6.07;;;25.80;71.60;;;;;;5052998;28;20458;-46
2022/08/04 05:25:35;;;;;;;8.00;7.20;;;26.00;71.50;;;;;;5052144;28;20501;-47
2022/08/04 05:28:05;;;;;;;10.17;7.33;;;26.00;71.20;;;;;;5053221;28;20438;-46
2022/08/04 05:30:36;;;;;;;9.17;6.67;;;26.00;71.30;;;;;;5052410;28;20812;-47
2022/08/04 05:33:09;;;;;;;9.00;6.70;;;26.10;71.10;;;;;;5052986;28;20427;-46
2022/08/04 05:35:40;;;;;;;7.67;7.00;;;26.20;70.80;;;;;;5052753;28;20485;-47
2022/08/04 05:38:10;;;;;;;10.03;7.53;;;26.20;70.50;;;;;;5052985;28;20505;-46
2022/08/04 05:40:38;;;;;;;8.80;6.50;;;26.40;70.40;;;;;;5052472;28;20938;-47
2022/08/04 05:43:06;;;;;;;7.80;6.70;;;26.40;70.10;;;;;;5052601;28;20433;-47
2022/08/04 05:45:34;;;;;;;9.80;6.53;;;26.50;69.80;;;;;;5052497;28;20430;-47
2022/08/04 05:48:02;;;;;;;15.07;13.73;;;26.60;69.40;;;;;;5052148;28;20431;-47
2022/08/04 05:50:30;;;;;;;10.63;7.47;;;26.60;69.20;;;;;;5050992;28;20465;-47
2022/08/04 05:52:59;;;;;;;7.57;6.80;;;26.70;69.20;;;;;;5052107;28;20840;-47
2022/08/04 05:55:26;;;;;;;12.37;7.23;;;26.80;68.90;;;;;;5052144;28;20479;-47
2022/08/04 05:57:55;;;;;;;10.00;6.70;;;26.90;68.60;;;;;;5051941;28;20427;-47
2022/08/04 06:00:22;;;;;;;13.43;7.70;;;27.00;68.40;;;;;;5051978;28;20430;-46
2022/08/04 06:02:50;;;;;;;13.00;6.90;;;27.10;68.30;;;;;;5052316;28;20454;-47
2022/08/04 06:05:18;;;;;;;8.33;7.43;;;27.20;68.10;;;;;;5050773;28;20478;-47
2022/08/04 06:07:46;;;;;;;10.03;6.83;;;27.20;67.60;;;;;;5051969;28;20545;-48
2022/08/04 06:10:13;;;;;;;11.30;7.20;;;27.30;67.20;;;;;;5051447;28;20450;-47
2022/08/04 06:12:46;;;;;;;7.80;6.70;;;27.40;67.10;;;;;;5052306;28;20454;-47
2022/08/04 06:15:17;;;;;;;12.33;7.00;;;27.40;66.70;;;;;;5051839;28;20485;-47
2022/08/04 06:17:48;;;;;;;13.03;6.60;;;27.50;66.60;;;;;;5051649;28;20426;-46
2022/08/04 06:20:17;;;;;;;13.10;7.90;;;27.50;66.20;;;;;;5051803;28;20454;-47
2022/08/04 06:22:49;;;;;;;13.90;7.90;;;27.60;66.00;;;;;;5051837;28;20472;-47
2022/08/04 06:25:20;;;;;;;10.90;6.83;;;27.60;65.80;;;;;;5051596;28;20438;-47
2022/08/04 06:27:48;;;;;;;10.37;7.47;;;27.60;65.70;;;;;;5050025;28;20528;-47
2022/08/04 06:30:18;;;;;;;15.40;6.90;;;27.70;65.80;;;;;;5051169;28;20434;-48
2022/08/04 06:32:54;;;;;;;10.30;6.57;;;27.80;65.50;;;;;;5051872;28;20802;-47
2022/08/04 06:35:22;;;;;;;21.00;6.90;;;27.80;65.30;;;;;;5051477;28;20479;-47
2022/08/04 06:37:52;;;;;;;13.17;8.70;;;27.90;65.20;;;;;;5051186;28;20448;-46
2022/08/04 06:40:20;;;;;;;8.00;6.97;;;27.90;65.00;;;;;;5051185;28;20430;-47
2022/08/04 06:42:48;;;;;;;13.03;6.60;;;28.00;64.90;;;;;;5051750;28;20439;-47
2022/08/04 06:45:15;;;;;;;8.20;6.57;;;28.00;64.80;;;;;;5051683;28;20835;-47
2022/08/04 06:47:43;;;;;;;7.10;6.40;;;28.00;64.90;;;;;;5051598;28;20466;-47
2022/08/04 06:50:11;;;;;;;10.90;6.30;;;28.00;64.70;;;;;;5051159;28;20439;-47
2022/08/04 06:52:38;;;;;;;13.90;6.63;;;28.10;64.70;;;;;;5051371;28;20439;-47
2022/08/04 06:55:07;;;;;;;7.40;6.60;;;28.00;64.50;;;;;;5051169;28;20568;-49
2022/08/04 06:57:35;;;;;;;13.73;6.30;;;28.10;64.40;;;;;;5051234;28;20526;-47
2022/08/04 07:00:06;;;;;;;9.67;6.60;;;28.20;64.40;;;;;;5050838;28;20816;-47
2022/08/04 07:02:45;;;;;;;9.13;6.50;;;28.20;64.20;;;;;;5051167;28;20429;-47
2022/08/04 07:05:13;;;;;;;9.47;6.87;;;28.30;64.20;;;;;;5051234;28;20442;-47
2022/08/04 07:07:41;;;;;;;6.87;6.03;;;28.30;64.00;;;;;;5051266;28;20436;-47
2022/08/04 07:10:10;;;;;;;13.07;6.90;;;28.30;63.50;;;;;;5050548;28;20974;-46
2022/08/04 07:12:38;;;;;;;11.57;6.30;;;28.40;63.40;;;;;;5051462;28;20427;-47
2022/08/04 07:15:06;;;;;;;23.13;7.37;;;28.40;63.10;;;;;;5051093;28;20470;-47
2022/08/04 07:17:34;;;;;;;6.07;5.47;;;28.40;62.90;;;;;;5050962;28;20960;-46
2022/08/04 07:20:01;;;;;;;8.67;5.60;;;28.50;62.00;;;;;;5050634;28;20462;-46
2022/08/04 07:22:29;;;;;;;12.27;5.40;;;28.70;61.50;;;;;;5050848;28;21032;-47
2022/08/04 07:24:57;;;;;;;9.30;5.50;;;28.50;61.00;;;;;;5051291;28;20499;-47
2022/08/04 07:27:26;;;;;;;9.10;6.20;;;28.60;61.10;;;;;;5051089;28;20427;-47
2022/08/04 07:29:53;;;;;;;6.33;5.60;;;28.60;61.30;;;;;;5050688;28;20465;-47
2022/08/04 07:32:21;;;;;;;8.30;5.90;;;28.60;61.30;;;;;;5050941;28;20445;-47
2022/08/04 07:34:49;;;;;;;7.70;6.60;;;28.70;61.00;;;;;;5050811;28;20484;-47
2022/08/04 07:37:16;;;;;;;10.07;5.60;;;28.70;60.90;;;;;;5050916;28;20460;-47
2022/08/04 07:39:43;;;;;;;12.93;6.33;;;28.70;60.80;;;;;;5050497;28;20458;-47
2022/08/04 07:42:10;;;;;;;9.40;5.20;;;28.80;60.80;;;;;;5051154;28;20441;-47
2022/08/04 07:44:38;;;;;;;7.70;5.43;;;28.80;60.50;;;;;;5051248;28;20438;-47
2022/08/04 07:47:07;;;;;;;9.73;5.77;;;28.80;60.20;;;;;;5050975;28;20442;-46
2022/08/04 07:49:34;;;;;;;11.70;6.30;;;28.90;60.10;;;;;;5052641;28;20846;-46
2022/08/04 07:52:02;;;;;;;16.17;6.20;;;28.90;60.20;;;;;;5054802;28;20434;-46
2022/08/04 07:54:29;;;;;;;7.23;5.63;;;28.90;60.50;;;;;;5054764;28;20481;-47
2022/08/04 07:56:57;;;;;;;10.87;6.00;;;28.90;60.50;;;;;;5055001;28;20446;-47
2022/08/04 07:59:23;;;;;;;8.50;6.60;;;29.00;60.50;;;;;;5054147;28;20457;-47
2022/08/04 08:01:52;;;;;;;14.23;5.90;;;29.00;60.50;;;;;;5054480;28;20435;-47
2022/08/04 08:04:20;;;;;;;10.80;5.10;;;29.00;60.00;;;;;;5054334;28;20431;-46
2022/08/04 08:06:46;;;;;;;11.63;5.33;;;29.00;59.90;;;;;;5069995;28;20458;-46
2022/08/04 08:09:15;;;;;;;10.33;5.53;;;29.10;59.70;;;;;;5053685;28;20469;-46
2022/08/04 08:11:43;;;;;;;9.23;5.27;;;29.30;59.60;;;;;;5054064;28;20434;-46
2022/08/04 08:14:10;;;;;;;6.57;5.70;;;29.20;59.50;;;;;;5054075;28;20822;-47
2022/08/04 08:16:37;;;;;;;6.40;4.57;;;29.20;59.50;;;;;;5053830;28;20481;-47
2022/08/04 08:19:06;;;;;;;8.97;5.30;;;29.20;59.20;;;;;;5053878;28;20469;-47
2022/08/04 08:21:33;;;;;;;12.40;5.97;;;29.30;59.20;;;;;;5055136;28;20450;-47
2022/08/04 08:24:00;;;;;;;8.23;6.17;;;29.30;59.30;;;;;;5053387;28;20454;-47
2022/08/04 08:26:27;;;;;;;14.93;5.30;;;29.30;59.20;;;;;;5054813;28;20434;-47
2022/08/04 08:28:54;;;;;;;7.07;4.80;;;29.40;59.10;;;;;;5053942;28;20466;-47
2022/08/04 08:31:21;;;;;;;7.20;5.93;;;29.40;58.80;;;;;;5054485;28;20434;-46
2022/08/04 08:33:49;;;;;;;9.03;6.30;;;29.50;58.70;;;;;;5054667;28;20438;-47
2022/08/04 08:36:25;;;;;;;10.70;5.80;;;29.50;58.60;;;;;;5054679;28;20553;-46
2022/08/04 08:39:03;;;;;;;10.53;5.50;;;29.50;58.50;;;;;;5054326;28;20454;-47
2022/08/04 08:41:51;;;;;;;8.40;4.50;;;29.50;58.30;;;;;;5053557;28;20956;-46
2022/08/04 08:44:50;;;;;;;9.53;4.10;;;29.60;57.50;;;;;;5054138;28;20505;-46
2022/08/04 08:47:32;;;;;;;6.53;4.70;;;29.60;57.60;;;;;;5052770;28;20450;-47
2022/08/04 08:50:23;;;;;;;8.80;6.03;;;29.70;57.80;;;;;;5053681;28;20462;-47
2022/08/04 08:53:02;;;;;;;7.00;6.10;;;29.70;57.90;;;;;;5052803;28;20911;-47
2022/08/04 08:55:42;;;;;;;9.67;6.47;;;29.80;58.00;;;;;;5054717;28;20466;-47
2022/08/04 08:58:31;;;;;;;10.10;5.23;;;29.80;58.00;;;;;;5053871;28;20520;-47
2022/08/04 09:01:08;;;;;;;5.20;4.33;;;29.90;57.90;;;;;;5054111;28;20529;-46
2022/08/04 09:03:51;;;;;;;8.17;5.40;;;30.00;57.40;;;;;;5054261;28;20418;-46
2022/08/04 09:06:36;;;;;;;7.50;5.17;;;30.10;56.90;;;;;;5054082;28;20908;-46
2022/08/04 09:09:50;;;;;;;9.67;4.70;;;30.10;56.50;;;;;;5053753;28;20481;-46
2022/08/04 09:12:26;;;;;;;6.03;4.30;;;30.20;56.30;;;;;;5051923;28;20450;-46
2022/08/04 09:15:02;;;;;;;10.50;5.00;;;30.20;56.60;;;;;;5053835;28;20537;-46
2022/08/04 09:17:33;;;;;;;7.37;5.00;;;30.30;56.60;;;;;;5053532;28;20434;-47
2022/08/04 09:20:06;;;;;;;7.70;4.80;;;30.20;56.40;;;;;;5053434;28;20455;-46
2022/08/04 09:22:39;;;;;;;7.00;3.87;;;30.40;56.50;;;;;;5053850;28;20441;-46
2022/08/04 09:25:13;;;;;;;11.60;4.57;;;30.40;55.80;;;;;;5053666;28;20431;-46
2022/08/04 09:27:47;;;;;;;4.83;4.20;;;30.40;55.50;;;;;;5053583;28;20449;-46
2022/08/04 09:30:18;;;;;;;9.13;4.87;;;30.50;55.30;;;;;;5052875;28;20918;-46
2022/08/04 09:32:53;;;;;;;7.00;4.70;;;30.60;55.50;;;;;;5053255;28;20431;-46
2022/08/04 09:35:30;;;;;;;7.53;4.40;;;30.60;55.70;;;;;;5053351;28;20486;-46
2022/08/04 09:38:05;;;;;;;9.17;4.80;;;30.70;55.70;;;;;;5053146;28;20434;-47
2022/08/04 09:40:40;;;;;;;6.57;4.30;;;30.60;55.30;;;;;;5052904;28;20438;-47
2022/08/04 09:43:16;;;;;;;4.30;3.90;;;30.80;54.90;;;;;;5053378;28;20441;-46
2022/08/04 09:45:52;;;;;;;8.00;3.80;;;30.90;54.20;;;;;;5053363;28;20433;-45
2022/08/04 09:48:28;;;;;;;6.60;4.73;;;30.90;54.20;;;;;;5053086;28;20872;-46
2022/08/04 09:50:58;;;;;;;4.80;3.90;;;30.90;54.20;;;;;;5052909;28;20496;-48
2022/08/04 09:53:45;;;;;;;7.00;4.50;;;31.00;53.80;;;;;;5053173;28;20496;-47
2022/08/04 09:56:22;;;;;;;6.53;4.90;;;31.10;54.00;;;;;;5052595;28;20462;-47
2022/08/04 09:59:01;;;;;;;8.73;4.23;;;31.20;54.10;;;;;;5051418;28;20474;-47
2022/08/04 10:01:30;;;;;;;6.57;3.83;;;31.10;53.50;;;;;;5052838;28;20866;-46
2022/08/04 10:04:00;;;;;;;3.83;3.53;;;31.20;53.90;;;;;;5052723;28;20836;-47
2022/08/04 10:06:45;;;;;;;7.97;4.17;;;31.20;53.30;;;;;;5052729;28;20434;-47
2022/08/04 10:09:32;;;;;;;5.87;3.90;;;31.20;53.10;;;;;;5051861;28;20469;-46
2022/08/04 10:12:16;;;;;;;5.20;3.50;;;31.20;53.10;;;;;;5044686;28;20454;-46
2022/08/04 10:14:51;;;;;;;4.47;3.90;;;31.20;53.00;;;;;;5051666;28;20427;-45
2022/08/04 10:17:39;;;;;;;5.90;3.60;;;31.30;53.20;;;;;;5051559;28;20462;-46
2022/08/04 10:20:10;;;;;;;8.47;3.70;;;31.40;53.00;;;;;;5051394;28;20545;-47
2022/08/04 10:22:39;;;;;;;5.47;3.60;;;31.40;52.90;;;;;;5051378;28;20438;-45
2022/08/04 10:25:21;;;;;;;5.87;3.90;;;31.40;52.80;;;;;;5051529;28;20430;-46
2022/08/04 10:27:54;;;;;;;4.10;3.70;;;31.50;52.80;;;;;;5051754;28;20431;-47
2022/08/04 10:30:22;;;;;;;12.30;3.77;;;31.50;52.70;;;;;;5051872;28;20441;-47
2022/08/04 10:32:54;;;;;;;5.63;4.10;;;31.50;52.40;;;;;;5051598;28;20437;-47
2022/08/04 10:35:23;;;;;;;20.73;4.27;;;31.60;52.00;;;;;;5051748;28;20511;-47
2022/08/04 10:38:00;;;;;;;13.30;3.80;;;31.70;51.60;;;;;;5051705;28;20445;-47
2022/08/04 10:40:39;;;;;;;4.97;3.37;;;31.70;51.10;;;;;;5051131;28;20441;-47
2022/08/04 10:43:12;;;;;;;6.07;3.70;;;31.80;51.20;;;;;;5051443;28;20427;-46
2022/08/04 10:45:44;;;;;;;5.73;3.30;;;31.90;51.30;;;;;;5051285;28;20450;-47
2022/08/04 10:48:18;;;;;;;5.00;3.60;;;31.90;50.90;;;;;;5051537;28;20446;-46
2022/08/04 10:50:57;;;;;;;5.30;3.70;;;31.90;50.70;;;;;;5050978;28;20935;-46
2022/08/04 10:53:26;;;;;;;4.90;3.33;;;31.90;50.70;;;;;;5051906;28;20435;-46
2022/08/04 10:55:59;;;;;;;3.90;3.07;;;31.80;50.40;;;;;;5051503;28;20474;-47
2022/08/04 10:58:33;;;;;;;3.37;2.70;;;32.10;50.50;;;;;;5050795;28;20461;-47
2022/08/04 11:01:08;;;;;;;6.30;2.93;;;32.10;50.00;;;;;;5051190;28;20445;-47
2022/08/04 11:03:44;;;;;;;8.43;3.03;;;32.10;49.90;;;;;;5051249;28;20446;-46
2022/08/04 11:06:11;;;;;;;7.30;2.97;;;32.20;49.70;;;;;;5051187;28;20475;-47
2022/08/04 11:08:44;;;;;;;5.03;3.60;;;32.20;49.30;;;;;;5050480;28;20478;-47
2022/08/04 11:11:16;;;;;;;4.97;3.70;;;32.30;49.00;;;;;;5051114;28;20419;-48
2022/08/04 11:13:49;;;;;;;3.70;3.40;;;32.30;49.10;;;;;;5051006;28;20434;-46
2022/08/04 11:16:20;;;;;;;6.53;3.20;;;32.40;49.00;;;;;;5050903;28;21018;-47
2022/08/04 11:18:58;;;;;;;5.47;4.30;;;32.40;48.90;;;;;;5050681;28;20455;-46
2022/08/04 11:21:30;;;;;;;7.63;2.57;;;32.40;48.80;;;;;;5051350;28;20437;-47
2022/08/04 11:24:02;;;;;;;5.13;3.20;;;32.40;48.70;;;;;;5052078;28;20434;-47
2022/08/04 11:26:48;;;;;;;3.00;2.70;;;32.40;48.80;;;;;;5054931;28;20498;-47
2022/08/04 11:29:25;;;;;;;5.30;3.17;;;32.50;48.50;;;;;;5054807;28;20450;-47
2022/08/04 11:31:53;;;;;;;5.47;3.50;;;32.50;48.40;;;;;;5055006;28;20461;-46
2022/08/04 11:34:21;;;;;;;5.00;3.00;;;32.40;48.10;;;;;;5054831;28;20433;-47
2022/08/04 11:36:54;;;;;;;3.63;2.93;;;32.50;48.10;;;;;;5053404;28;21020;-48
2022/08/04 11:39:28;;;;;;;4.63;3.30;;;32.60;47.90;;;;;;5054214;28;20482;-47
2022/08/04 11:42:00;;;;;;;2.97;2.73;;;32.70;47.70;;;;;;5054696;28;20493;-46
2022/08/04 11:44:31;;;;;;;3.90;3.50;;;32.70;47.20;;;;;;5054786;28;20953;-47
2022/08/04 11:47:02;;;;;;;4.03;3.20;;;32.80;47.20;;;;;;5054445;28;20437;-47
2022/08/04 11:49:33;;;;;;;3.50;3.20;;;32.80;47.40;;;;;;5054372;28;20986;-46
2022/08/04 11:52:01;;;;;;;6.73;3.23;;;32.90;47.50;;;;;;5054284;28;20433;-48
2022/08/04 11:54:29;;;;;;;4.70;3.10;;;32.90;47.40;;;;;;5054436;28;20522;-47
2022/08/04 11:56:56;;;;;;;5.80;3.27;;;33.00;47.40;;;;;;5054321;28;20480;-48
2022/08/04 11:59:25;;;;;;;6.90;3.87;;;33.20;47.20;;;;;;5053849;28;21073;-47
2022/08/04 12:02:07;;;;;;;3.07;2.63;;;33.20;46.80;;;;;;5053989;28;20446;-46
2022/08/04 12:04:41;;;;;;;6.53;3.20;;;33.20;46.10;;;;;;5054323;28;20440;-47
2022/08/04 12:07:20;;;;;;;4.37;3.97;;;33.30;46.10;;;;;;5054232;28;20544;-48
2022/08/04 12:09:54;;;;;;;5.63;3.00;;;33.30;45.60;;;;;;5053565;28;20470;-46
2022/08/04 12:12:28;;;;;;;5.43;3.37;;;33.30;45.80;;;;;;5054209;28;20426;-47
2022/08/04 12:15:03;;;;;;;3.87;3.00;;;33.50;45.40;;;;;;5054323;28;20935;-45
2022/08/04 12:17:40;;;;;;;5.50;3.37;;;33.50;44.80;;;;;;5053891;28;21008;-46
2022/08/04 12:20:09;;;;;;;4.10;2.60;;;33.60;44.30;;;;;;5053777;28;20454;-46
2022/08/04 12:22:40;;;;;;;3.57;2.97;;;33.70;44.20;;;;;;5054049;28;20450;-46
2022/08/04 12:25:08;;;;;;;2.90;2.70;;;33.70;43.60;;;;;;5054132;28;20423;-47
2022/08/04 12:27:41;;;;;;;10.63;3.70;;;33.90;43.60;;;;;;5053911;28;20518;-46
2022/08/04 12:30:10;;;;;;;4.70;3.40;;;34.00;43.40;;;;;;5053256;28;20474;-46
2022/08/04 12:32:42;;;;;;;7.07;2.70;;;34.10;43.30;;;;;;5053542;28;20453;-46
2022/08/04 12:35:14;;;;;;;6.43;4.00;;;34.10;43.30;;;;;;5053604;28;20427;-47
2022/08/04 12:37:51;;;;;;;5.30;3.70;;;34.20;43.30;;;;;;5053607;28;20489;-47
2022/08/04 12:40:22;;;;;;;5.20;4.00;;;34.30;43.30;;;;;;5053476;28;20441;-46
2022/08/04 12:42:57;;;;;;;3.43;3.10;;;34.30;43.30;;;;;;5053374;28;20433;-45
2022/08/04 12:45:24;;;;;;;4.37;2.70;;;34.40;43.10;;;;;;5052131;28;20528;-46
2022/08/04 12:47:56;;;;;;;4.20;3.40;;;34.30;42.90;;;;;;5053592;28;20431;-46
2022/08/04 12:50:24;;;;;;;3.43;3.10;;;34.30;42.90;;;;;;5052953;28;20426;-47
2022/08/04 12:52:55;;;;;;;4.00;2.80;;;34.30;42.70;;;;;;5053255;28;20950;-46
2022/08/04 12:55:24;;;;;;;3.37;3.00;;;34.30;42.70;;;;;;5053009;28;20477;-47
2022/08/04 12:57:53;;;;;;;4.10;3.30;;;34.20;42.70;;;;;;5053003;28;20553;-47
2022/08/04 13:00:28;;;;;;;4.40;3.47;;;34.20;42.70;;;;;;5052609;28;20435;-47
2022/08/04 13:03:00;;;;;;;3.37;3.07;;;34.30;42.50;;;;;;5052907;28;20529;-46
2022/08/04 13:05:30;;;;;;;7.03;3.20;;;34.40;42.30;;;;;;5053318;28;20492;-47
2022/08/04 13:07:57;;;;;;;3.63;3.00;;;34.40;42.30;;;;;;5052706;28;20426;-47
2022/08/04 13:10:25;;;;;;;3.90;3.20;;;34.40;42.30;;;;;;5052715;28;20427;-47
2022/08/04 13:12:55;;;;;;;6.80;3.30;;;34.40;42.70;;;;;;5053078;28;20434;-47
2022/08/04 13:15:24;;;;;;;4.17;2.57;;;34.40;42.60;;;;;;5052772;28;20842;-46
2022/08/04 13:17:55;;;;;;;10.50;3.07;;;34.40;42.90;;;;;;5052430;28;20528;-47
2022/08/04 13:20:27;;;;;;;5.60;4.17;;;34.50;42.20;;;;;;5052390;28;20434;-46
2022/08/04 13:23:00;;;;;;;3.40;3.10;;;34.60;41.80;;;;;;5052703;28;20446;-46
2022/08/04 13:25:28;;;;;;;4.00;2.40;;;34.60;41.60;;;;;;5052822;28;20872;-47
2022/08/04 13:27:55;;;;;;;3.60;3.20;;;34.70;41.40;;;;;;5067862;28;20446;-47